Terminal Aerodrome Forecast
Issued by NWS

Home | Current Version | Previous Version | Text Only | Print | Product List | Glossary On
Versions: 1 2 3 4 5 6 7 8 9 10 11 12 13 14 15 16 17 18 19 20 21 22 23 24 25 26 27 28 29 30 31 32 33 34 35 36 37 38 39 40
000
FTUS41 KALY 190539 CCA
TAFPSF
TAF COR
KPSF 190539Z 1906/2006 VRB03KT 6SM BR FEW002
      TEMPO 1906/1908 1/2SM FG BKN002
     FM190800 VRB03KT 1/2SM FG VV002
     FM191300 21004KT P6SM SKC
     FM191500 22010G17KT P6SM SKC
     FM200300 25008KT P6SM FEW050=

USA.gov is the U.S. government's official web portal to all federal, state and local government web resources and services.